createdAt,value
2022-08-18T00:04:49.947Z,17.77
2022-08-18T00:09:56.153Z,20.52
2022-08-18T00:15:03.539Z,15.75
2022-08-18T00:20:09.489Z,17.95
2022-08-18T00:25:15.190Z,16.60
2022-08-18T00:30:21.200Z,19.77
2022-08-18T00:35:42.971Z,20.63
2022-08-18T00:40:52.141Z,18.52
2022-08-18T00:45:54.630Z,19.13
2022-08-18T00:51:00.194Z,18.75
2022-08-18T00:56:11.546Z,17.08
2022-08-18T01:01:15.191Z,19.80
2022-08-18T01:06:41.366Z,21.58
2022-08-18T01:11:44.663Z,16.20
2022-08-18T01:17:05.967Z,21.23
2022-08-18T01:22:26.518Z,20.13
2022-08-18T01:27:32.497Z,22.02
2022-08-18T01:32:34.888Z,19.73
2022-08-18T01:37:37.826Z,25.13
2022-08-18T01:42:43.415Z,23.83
2022-08-18T01:47:47.354Z,19.92
2022-08-18T01:53:01.632Z,24.95
2022-08-18T01:58:05.507Z,22.25
2022-08-18T02:03:11.889Z,24.05
2022-08-18T02:08:15.502Z,24.45
2022-08-18T02:13:18.420Z,22.80
2022-08-18T02:18:30.535Z,24.30
2022-08-18T02:23:53.327Z,23.05
2022-08-18T02:28:56.837Z,22.40
2022-08-18T02:33:59.629Z,21.30
2022-08-18T02:39:02.148Z,25.00
2022-08-18T02:44:07.434Z,23.40
2022-08-18T02:49:09.966Z,25.02
2022-08-18T02:54:12.337Z,19.75
2022-08-18T02:59:17.228Z,28.45
2022-08-18T03:04:29.605Z,25.73
2022-08-18T03:09:32.895Z,29.27
2022-08-18T03:14:36.170Z,31.48
2022-08-18T03:19:38.587Z,26.48
2022-08-18T03:24:41.108Z,32.08
2022-08-18T03:29:43.811Z,28.67
2022-08-18T03:34:46.249Z,30.13
2022-08-18T03:39:51.779Z,31.90
2022-08-18T03:44:54.210Z,32.10
2022-08-18T03:49:56.572Z,35.33
2022-08-18T03:55:00.169Z,36.70
2022-08-18T04:00:05.996Z,29.17
2022-08-18T04:05:11.138Z,30.75
2022-08-18T04:10:14.148Z,32.92
2022-08-18T04:15:21.936Z,30.92
2022-08-18T04:20:24.410Z,29.50
2022-08-18T04:25:32.135Z,31.77
2022-08-18T04:30:36.584Z,33.03
2022-08-18T04:35:38.966Z,35.05
2022-08-18T04:40:43.004Z,29.13
2022-08-18T04:45:46.044Z,31.77
2022-08-18T04:50:48.426Z,37.28
2022-08-18T04:55:54.255Z,38.30
2022-08-18T05:01:01.662Z,33.53
2022-08-18T05:06:05.131Z,41.72
2022-08-18T05:11:07.649Z,32.38
2022-08-18T05:16:16.939Z,37.35
2022-08-18T05:21:23.139Z,34.13
2022-08-18T05:26:34.196Z,38.25
2022-08-18T05:31:36.808Z,38.90
2022-08-18T05:36:51.926Z,40.33
2022-08-18T05:41:59.028Z,37.38
2022-08-18T05:47:17.015Z,35.97
2022-08-18T05:52:26.069Z,33.47
2022-08-18T05:57:33.188Z,38.00
2022-08-18T06:02:38.630Z,36.28
2022-08-18T06:07:42.473Z,37.00
2022-08-18T06:12:56.053Z,31.30
2022-08-18T06:18:22.833Z,36.35
2022-08-18T06:23:55.682Z,34.53
2022-08-18T06:29:23.156Z,28.70
2022-08-18T06:34:54.714Z,34.90
2022-08-18T06:39:57.358Z,34.92
2022-08-18T06:45:08.542Z,30.15
2022-08-18T06:50:22.029Z,25.88
2022-08-18T06:55:43.864Z,26.92
2022-08-18T07:00:52.310Z,36.80
2022-08-18T07:06:05.717Z,29.25
2022-08-18T07:11:25.904Z,23.55
2022-08-18T07:16:56.704Z,26.80
2022-08-18T07:22:02.434Z,28.33
2022-08-18T07:27:11.871Z,29.92
2022-08-18T07:32:21.432Z,33.85
2022-08-18T07:37:44.997Z,29.00
2022-08-18T07:43:01.251Z,23.08
2022-08-18T07:54:00.246Z,21.80
2022-08-18T07:59:13.225Z,23.38
2022-08-18T08:04:39.774Z,18.85
2022-08-18T08:09:51.735Z,29.00
2022-08-18T08:15:07.949Z,21.60
2022-08-18T08:21:03.588Z,20.52
2022-08-18T08:26:20.080Z,19.25
2022-08-18T08:31:39.281Z,21.05
2022-08-18T08:36:45.189Z,23.13
2022-08-18T08:42:29.750Z,19.77
2022-08-18T08:47:35.549Z,20.10
2022-08-18T08:52:48.719Z,16.70
2022-08-18T08:58:08.543Z,17.58
2022-08-18T09:03:30.335Z,14.85
2022-08-18T09:08:36.344Z,16.48
2022-08-18T09:13:59.696Z,19.58
2022-08-18T09:19:14.200Z,20.60
2022-08-18T09:24:21.188Z,13.85
2022-08-18T09:29:46.933Z,16.95
2022-08-18T09:35:05.380Z,14.25
2022-08-18T09:41:01.201Z,13.23
2022-08-18T09:51:40.028Z,13.70
2022-08-18T09:57:03.894Z,14.40
2022-08-18T10:02:20.261Z,14.25
2022-08-18T10:07:35.402Z,14.57
2022-08-18T10:13:12.637Z,14.77
2022-08-18T10:18:30.667Z,15.13
2022-08-18T10:29:32.154Z,12.68
2022-08-18T10:34:52.910Z,12.95
2022-08-18T10:40:13.200Z,16.00
2022-08-18T10:45:30.441Z,17.95
2022-08-18T10:50:56.578Z,15.52
2022-08-18T10:56:43.809Z,10.52
2022-08-18T11:01:50.698Z,15.00
2022-08-18T11:07:09.005Z,11.98
2022-08-18T11:12:14.165Z,13.70
2022-08-18T11:17:26.846Z,13.45
2022-08-18T11:22:34.350Z,12.82
2022-08-18T11:27:46.216Z,18.85
2022-08-18T11:32:51.677Z,11.85
2022-08-18T11:37:58.422Z,12.32
2022-08-18T11:43:21.538Z,13.25
2022-08-18T11:48:35.875Z,13.10
2022-08-18T11:59:52.946Z,14.02
2022-08-18T12:05:03.009Z,12.65
2022-08-18T12:10:26.168Z,10.55
2022-08-18T12:15:47.353Z,9.48
2022-08-18T12:20:51.160Z,14.00
2022-08-18T12:25:54.090Z,18.35
2022-08-18T12:31:00.068Z,14.57
2022-08-18T12:36:06.178Z,13.30
2022-08-18T12:41:11.976Z,13.63
2022-08-18T12:46:14.596Z,12.38
2022-08-18T12:51:17.075Z,16.50
2022-08-18T12:56:22.653Z,10.63
2022-08-18T13:01:25.506Z,13.85
2022-08-18T13:06:29.040Z,15.35
2022-08-18T13:11:31.401Z,12.55
2022-08-18T13:16:54.997Z,12.80
2022-08-18T13:21:57.971Z,13.23
2022-08-18T13:27:03.843Z,9.10
2022-08-18T13:32:21.377Z,10.40
2022-08-18T13:37:26.644Z,11.52
2022-08-18T13:42:31.262Z,14.73
2022-08-18T13:47:52.711Z,12.10
2022-08-18T13:52:57.285Z,13.40
2022-08-18T13:58:00.891Z,20.48
2022-08-18T14:03:06.541Z,13.88
2022-08-18T14:08:11.142Z,16.50
2022-08-18T14:13:24.764Z,9.98
2022-08-18T14:18:30.825Z,9.48
2022-08-18T14:23:53.256Z,9.43
2022-08-18T14:28:55.849Z,16.58
2022-08-18T14:34:04.019Z,22.25
2022-08-18T14:39:08.472Z,12.60
2022-08-18T14:44:15.349Z,14.07
2022-08-18T14:49:28.294Z,10.88
2022-08-18T14:54:32.385Z,12.63
2022-08-18T14:59:37.731Z,16.65
2022-08-18T15:04:53.163Z,12.95
2022-08-18T15:10:14.781Z,28.17
2022-08-18T15:15:19.195Z,14.57
2022-08-18T15:20:28.861Z,11.70
2022-08-18T15:25:51.002Z,24.85
2022-08-18T15:36:21.465Z,16.23
2022-08-18T15:41:43.944Z,12.02
2022-08-18T15:46:53.476Z,15.88
2022-08-18T15:51:56.481Z,17.13
2022-08-18T15:56:59.330Z,18.73
2022-08-18T16:02:02.651Z,11.63
2022-08-18T16:07:05.448Z,11.40
2022-08-18T16:12:10.899Z,9.45
2022-08-18T16:17:29.820Z,14.07
2022-08-18T16:22:35.583Z,9.48
2022-08-18T16:27:42.698Z,9.55
2022-08-18T16:32:46.835Z,13.75
2022-08-18T16:37:49.761Z,13.32
2022-08-18T16:42:55.527Z,11.50
2022-08-18T16:47:57.928Z,18.25
2022-08-18T16:53:00.349Z,13.68
2022-08-18T16:58:22.682Z,15.50
2022-08-18T17:03:43.477Z,12.55
2022-08-18T17:08:46.378Z,8.38
2022-08-18T17:13:50.854Z,9.82
2022-08-18T17:18:54.505Z,12.50
2022-08-18T17:24:02.130Z,11.50
2022-08-18T17:29:36.609Z,19.00
2022-08-18T17:34:42.727Z,14.65
2022-08-18T17:40:00.539Z,14.77
2022-08-18T17:45:08.030Z,13.55
2022-08-18T17:50:48.992Z,14.70
2022-08-18T17:55:59.991Z,14.55
2022-08-18T18:01:03.723Z,11.27
2022-08-18T18:06:30.555Z,18.83
2022-08-18T18:11:36.846Z,18.27
2022-08-18T18:16:39.235Z,14.45
2022-08-18T18:21:56.573Z,17.10
2022-08-18T18:27:32.277Z,15.25
2022-08-18T18:32:59.318Z,16.20
2022-08-18T18:38:06.383Z,13.77
2022-08-18T18:43:29.027Z,16.60
2022-08-18T18:48:52.300Z,17.70
2022-08-18T18:54:03.585Z,17.27
2022-08-18T18:59:05.950Z,13.23
2022-08-18T19:04:18.510Z,14.30
2022-08-18T19:09:32.068Z,14.02
2022-08-18T19:14:41.078Z,15.95
2022-08-18T19:19:58.242Z,13.98
2022-08-18T19:25:13.599Z,12.77
2022-08-18T19:30:17.735Z,20.50
2022-08-18T19:35:35.108Z,19.08
2022-08-18T19:40:47.731Z,14.75
2022-08-18T19:45:58.428Z,15.55
2022-08-18T19:51:08.396Z,17.42
2022-08-18T19:56:48.934Z,13.45
2022-08-18T20:02:15.597Z,13.85
2022-08-18T20:07:17.957Z,16.10
2022-08-18T20:12:29.572Z,26.40
2022-08-18T20:17:32.044Z,16.80
2022-08-18T20:22:42.266Z,16.55
2022-08-18T20:28:09.892Z,20.92
2022-08-18T20:33:18.230Z,21.60
2022-08-18T20:38:47.739Z,25.33
2022-08-18T20:44:09.137Z,18.42
2022-08-18T20:49:39.058Z,17.20
2022-08-18T20:54:57.825Z,20.55
2022-08-18T21:00:27.001Z,18.77
2022-08-18T21:05:39.090Z,20.50
2022-08-18T21:10:52.784Z,21.20
2022-08-18T21:15:56.466Z,21.45
2022-08-18T21:20:59.765Z,17.05
2022-08-18T21:26:12.459Z,17.58
2022-08-18T21:31:43.641Z,15.07
2022-08-18T21:36:53.682Z,17.05
2022-08-18T21:41:58.128Z,20.33
2022-08-18T21:47:14.964Z,19.17
2022-08-18T21:52:24.293Z,15.75
2022-08-18T21:57:29.605Z,22.17
2022-08-18T22:02:32.072Z,21.00
2022-08-18T22:07:35.658Z,23.50
2022-08-18T22:12:56.701Z,20.83
2022-08-18T22:18:01.883Z,16.48
2022-08-18T22:23:54.394Z,21.08
2022-08-18T22:29:17.512Z,21.05
2022-08-18T22:34:29.105Z,19.83
2022-08-18T22:39:35.758Z,22.02
2022-08-18T22:44:38.584Z,21.85
2022-08-18T22:49:41.485Z,18.83
2022-08-18T22:54:43.829Z,19.85
2022-08-18T22:59:49.609Z,21.67
2022-08-18T23:04:52.366Z,21.67
2022-08-18T23:09:54.808Z,18.75
2022-08-18T23:14:57.189Z,20.95
2022-08-18T23:19:59.973Z,24.83
2022-08-18T23:25:08.824Z,20.42
2022-08-18T23:30:12.720Z,18.70
2022-08-18T23:35:15.777Z,19.83
2022-08-18T23:40:19.438Z,24.48
2022-08-18T23:45:22.070Z,19.77
2022-08-18T23:50:24.583Z,17.50
2022-08-18T23:55:29.499Z,22.95
